weather.gov     
National Weather Service

Terminal Aerodrome Forecast
NWS Homepage
This page is being discontinued on March 12, 2014.
The same data is available at this site. Please update your bookmarks.
Thank you, and we apologize for the inconvenience.
Please send an email to SR-SRH.Webmaster@noaa.gov with any concerns.


Current Version
Previous Version:    01  02  03  04  05  06  07  08  09  10  11  12  13  14  15  16  17  18  19  20  21  22  23  24  25  26  27  28  29  30  
   31  32  33  34  35  
[Printable]
215
FTUS43 KOAX 230520
TAFOMA
TAF
KOMA 230520Z 2306/2406 14010KT P6SM BKN080 WS015/17050KT
      TEMPO 2312/2315 5SM TSRA BKN030CB
     FM231500 16025G33KT P6SM BKN250
      TEMPO 2400/2404 4SM TSRA BKN040CB
     FM240400 14018G25KT 4SM TSRA OVC030CB=


215
FTUS43 KOAX 230520
TAFOMA
TAF
KOMA 230520Z 2306/2406 14010KT P6SM BKN080 WS015/17050KT
      TEMPO 2312/2315 5SM TSRA BKN030CB
     FM231500 16025G33KT P6SM BKN250
      TEMPO 2400/2404 4SM TSRA BKN040CB
     FM240400 14018G25KT 4SM TSRA OVC030CB=




U.S. Dept. of Commerce
NOAA National Weather Service
1325 East West Highway
Silver Spring, MD 20910
E-mail: w-nws.webmaster@noaa.gov
Page last modified: May 16, 2007
NATIONAL WEATHER SERVICE: for Safety, for Work, for Fun - FOR LIFE